sensor_id;sensor_type;location;lat;lon;timestamp;P1;durP1;ratioP1;P2;durP2;ratioP2
78308;SDS011;67566;42.022;21.356;2023-08-06T00:00:11;8.23;;;5.65;;
78308;SDS011;67566;42.022;21.356;2023-08-06T00:02:36;9.05;;;6.90;;
78308;SDS011;67566;42.022;21.356;2023-08-06T00:05:02;11.18;;;5.88;;
78308;SDS011;67566;42.022;21.356;2023-08-06T00:07:28;9.15;;;6.50;;
78308;SDS011;67566;42.022;21.356;2023-08-06T00:09:54;11.07;;;6.43;;
78308;SDS011;67566;42.022;21.356;2023-08-06T00:12:19;13.45;;;6.75;;
78308;SDS011;67566;42.022;21.356;2023-08-06T00:14:44;12.65;;;7.43;;
78308;SDS011;67566;42.022;21.356;2023-08-06T00:17:10;9.88;;;6.75;;
78308;SDS011;67566;42.022;21.356;2023-08-06T00:19:36;9.32;;;7.40;;
78308;SDS011;67566;42.022;21.356;2023-08-06T00:22:01;8.90;;;6.40;;
78308;SDS011;67566;42.022;21.356;2023-08-06T00:24:27;9.25;;;5.97;;
78308;SDS011;67566;42.022;21.356;2023-08-06T00:26:53;11.35;;;6.93;;
78308;SDS011;67566;42.022;21.356;2023-08-06T00:29:18;7.85;;;6.22;;
78308;SDS011;67566;42.022;21.356;2023-08-06T00:31:44;10.38;;;6.82;;
78308;SDS011;67566;42.022;21.356;2023-08-06T00:34:09;9.15;;;5.70;;
78308;SDS011;67566;42.022;21.356;2023-08-06T00:36:35;12.35;;;7.03;;
78308;SDS011;67566;42.022;21.356;2023-08-06T00:39:00;9.50;;;6.75;;
78308;SDS011;67566;42.022;21.356;2023-08-06T00:41:26;9.93;;;6.72;;
78308;SDS011;67566;42.022;21.356;2023-08-06T00:43:51;7.32;;;5.50;;
78308;SDS011;67566;42.022;21.356;2023-08-06T00:46:17;7.30;;;5.25;;
78308;SDS011;67566;42.022;21.356;2023-08-06T00:48:42;10.95;;;6.25;;
78308;SDS011;67566;42.022;21.356;2023-08-06T00:51:09;10.32;;;6.50;;
78308;SDS011;67566;42.022;21.356;2023-08-06T00:53:37;10.30;;;6.68;;
78308;SDS011;67566;42.022;21.356;2023-08-06T00:56:03;8.82;;;6.43;;
78308;SDS011;67566;42.022;21.356;2023-08-06T00:58:29;9.05;;;6.13;;
78308;SDS011;67566;42.022;21.356;2023-08-06T01:00:54;8.27;;;5.88;;
78308;SDS011;67566;42.022;21.356;2023-08-06T01:03:20;7.97;;;6.20;;
78308;SDS011;67566;42.022;21.356;2023-08-06T01:05:46;8.73;;;5.72;;
78308;SDS011;67566;42.022;21.356;2023-08-06T01:11:08;8.13;;;5.30;;
78308;SDS011;67566;42.022;21.356;2023-08-06T01:13:58;10.23;;;5.60;;
78308;SDS011;67566;42.022;21.356;2023-08-06T01:16:27;6.07;;;4.72;;
78308;SDS011;67566;42.022;21.356;2023-08-06T01:18:55;5.80;;;4.15;;
78308;SDS011;67566;42.022;21.356;2023-08-06T01:21:23;6.68;;;3.88;;
78308;SDS011;67566;42.022;21.356;2023-08-06T01:23:48;5.38;;;3.97;;
78308;SDS011;67566;42.022;21.356;2023-08-06T01:31:26;7.28;;;4.03;;
78308;SDS011;67566;42.022;21.356;2023-08-06T01:33:58;5.53;;;3.22;;
78308;SDS011;67566;42.022;21.356;2023-08-06T01:36:26;6.75;;;3.92;;
78308;SDS011;67566;42.022;21.356;2023-08-06T01:38:53;6.63;;;3.80;;
78308;SDS011;67566;42.022;21.356;2023-08-06T01:41:18;6.25;;;3.97;;
78308;SDS011;67566;42.022;21.356;2023-08-06T01:43:44;6.30;;;4.13;;
78308;SDS011;67566;42.022;21.356;2023-08-06T01:46:09;6.13;;;3.60;;
78308;SDS011;67566;42.022;21.356;2023-08-06T01:48:35;7.22;;;4.15;;
78308;SDS011;67566;42.022;21.356;2023-08-06T01:51:00;6.72;;;4.18;;
78308;SDS011;67566;42.022;21.356;2023-08-06T01:53:26;5.63;;;4.03;;
78308;SDS011;67566;42.022;21.356;2023-08-06T01:55:52;5.82;;;3.95;;
78308;SDS011;67566;42.022;21.356;2023-08-06T01:58:17;6.75;;;4.22;;
78308;SDS011;67566;42.022;21.356;2023-08-06T02:00:43;6.82;;;4.22;;
78308;SDS011;67566;42.022;21.356;2023-08-06T02:03:08;7.40;;;4.22;;
78308;SDS011;67566;42.022;21.356;2023-08-06T02:05:34;6.13;;;3.67;;
78308;SDS011;67566;42.022;21.356;2023-08-06T02:07:59;7.72;;;4.47;;
78308;SDS011;67566;42.022;21.356;2023-08-06T02:10:25;10.15;;;4.32;;
78308;SDS011;67566;42.022;21.356;2023-08-06T02:12:50;12.88;;;5.07;;
78308;SDS011;67566;42.022;21.356;2023-08-06T02:15:15;7.25;;;4.95;;
78308;SDS011;67566;42.022;21.356;2023-08-06T02:17:41;6.28;;;4.60;;
78308;SDS011;67566;42.022;21.356;2023-08-06T02:20:07;8.65;;;5.15;;
78308;SDS011;67566;42.022;21.356;2023-08-06T02:22:32;7.22;;;5.43;;
78308;SDS011;67566;42.022;21.356;2023-08-06T02:24:58;6.90;;;5.38;;
78308;SDS011;67566;42.022;21.356;2023-08-06T02:27:24;10.73;;;5.50;;
78308;SDS011;67566;42.022;21.356;2023-08-06T02:29:49;8.20;;;6.13;;
78308;SDS011;67566;42.022;21.356;2023-08-06T02:32:15;7.85;;;5.70;;
78308;SDS011;67566;42.022;21.356;2023-08-06T02:34:40;8.63;;;5.70;;
78308;SDS011;67566;42.022;21.356;2023-08-06T02:37:05;8.02;;;5.38;;
78308;SDS011;67566;42.022;21.356;2023-08-06T02:39:31;10.13;;;5.63;;
78308;SDS011;67566;42.022;21.356;2023-08-06T02:41:56;10.85;;;6.07;;
78308;SDS011;67566;42.022;21.356;2023-08-06T02:44:22;7.30;;;5.25;;
78308;SDS011;67566;42.022;21.356;2023-08-06T02:46:47;7.63;;;5.40;;
78308;SDS011;67566;42.022;21.356;2023-08-06T02:49:13;9.43;;;5.40;;
78308;SDS011;67566;42.022;21.356;2023-08-06T02:51:38;8.50;;;4.97;;
78308;SDS011;67566;42.022;21.356;2023-08-06T02:54:03;11.27;;;6.22;;
78308;SDS011;67566;42.022;21.356;2023-08-06T02:56:29;10.40;;;5.90;;
78308;SDS011;67566;42.022;21.356;2023-08-06T02:58:55;9.60;;;5.53;;
78308;SDS011;67566;42.022;21.356;2023-08-06T03:01:21;7.35;;;4.90;;
78308;SDS011;67566;42.022;21.356;2023-08-06T03:03:48;6.65;;;5.15;;
78308;SDS011;67566;42.022;21.356;2023-08-06T03:06:13;7.03;;;5.00;;
78308;SDS011;67566;42.022;21.356;2023-08-06T03:08:39;5.93;;;4.53;;
78308;SDS011;67566;42.022;21.356;2023-08-06T03:11:05;11.23;;;5.75;;
78308;SDS011;67566;42.022;21.356;2023-08-06T03:13:30;8.35;;;4.80;;
78308;SDS011;67566;42.022;21.356;2023-08-06T03:15:56;9.60;;;5.72;;
78308;SDS011;67566;42.022;21.356;2023-08-06T03:18:23;7.07;;;5.30;;
78308;SDS011;67566;42.022;21.356;2023-08-06T03:20:48;9.45;;;5.38;;
78308;SDS011;67566;42.022;21.356;2023-08-06T03:23:14;8.00;;;5.15;;
78308;SDS011;67566;42.022;21.356;2023-08-06T03:25:40;8.77;;;5.53;;
78308;SDS011;67566;42.022;21.356;2023-08-06T03:28:05;7.45;;;5.32;;
78308;SDS011;67566;42.022;21.356;2023-08-06T03:30:31;6.53;;;4.70;;
78308;SDS011;67566;42.022;21.356;2023-08-06T03:32:56;9.25;;;5.65;;
78308;SDS011;67566;42.022;21.356;2023-08-06T03:35:21;6.13;;;4.95;;
78308;SDS011;67566;42.022;21.356;2023-08-06T03:37:47;6.63;;;5.20;;
78308;SDS011;67566;42.022;21.356;2023-08-06T03:40:13;9.95;;;5.00;;
78308;SDS011;67566;42.022;21.356;2023-08-06T03:42:39;8.35;;;5.10;;
78308;SDS011;67566;42.022;21.356;2023-08-06T03:45:04;6.35;;;4.90;;
78308;SDS011;67566;42.022;21.356;2023-08-06T03:47:30;9.00;;;5.75;;
78308;SDS011;67566;42.022;21.356;2023-08-06T03:49:55;8.50;;;4.95;;
78308;SDS011;67566;42.022;21.356;2023-08-06T03:52:21;7.28;;;5.38;;
78308;SDS011;67566;42.022;21.356;2023-08-06T03:54:47;8.13;;;5.28;;
78308;SDS011;67566;42.022;21.356;2023-08-06T03:57:12;8.80;;;6.05;;
78308;SDS011;67566;42.022;21.356;2023-08-06T03:59:38;7.50;;;4.75;;
78308;SDS011;67566;42.022;21.356;2023-08-06T04:02:03;9.30;;;4.82;;
78308;SDS011;67566;42.022;21.356;2023-08-06T04:04:29;7.32;;;5.20;;
78308;SDS011;67566;42.022;21.356;2023-08-06T04:06:54;8.88;;;5.00;;
78308;SDS011;67566;42.022;21.356;2023-08-06T04:09:20;6.03;;;4.72;;
78308;SDS011;67566;42.022;21.356;2023-08-06T04:11:45;7.13;;;4.75;;
78308;SDS011;67566;42.022;21.356;2023-08-06T04:14:11;6.80;;;5.85;;
78308;SDS011;67566;42.022;21.356;2023-08-06T04:16:36;9.23;;;5.15;;
78308;SDS011;67566;42.022;21.356;2023-08-06T04:19:01;9.25;;;5.68;;
78308;SDS011;67566;42.022;21.356;2023-08-06T04:21:27;8.27;;;5.40;;
78308;SDS011;67566;42.022;21.356;2023-08-06T04:23:52;9.30;;;6.18;;
78308;SDS011;67566;42.022;21.356;2023-08-06T04:26:18;10.82;;;5.07;;
78308;SDS011;67566;42.022;21.356;2023-08-06T04:28:43;9.43;;;5.32;;
78308;SDS011;67566;42.022;21.356;2023-08-06T04:31:09;7.63;;;5.25;;
78308;SDS011;67566;42.022;21.356;2023-08-06T04:33:34;6.72;;;5.05;;
78308;SDS011;67566;42.022;21.356;2023-08-06T04:36:00;5.88;;;4.45;;
78308;SDS011;67566;42.022;21.356;2023-08-06T04:38:25;7.72;;;5.57;;
78308;SDS011;67566;42.022;21.356;2023-08-06T04:40:51;6.40;;;5.22;;
78308;SDS011;67566;42.022;21.356;2023-08-06T04:43:18;6.72;;;5.47;;
78308;SDS011;67566;42.022;21.356;2023-08-06T04:45:46;8.45;;;4.78;;
78308;SDS011;67566;42.022;21.356;2023-08-06T04:48:15;7.75;;;5.10;;
78308;SDS011;67566;42.022;21.356;2023-08-06T04:50:44;8.35;;;5.25;;
78308;SDS011;67566;42.022;21.356;2023-08-06T04:53:10;9.50;;;6.07;;
78308;SDS011;67566;42.022;21.356;2023-08-06T04:55:36;10.13;;;5.30;;
78308;SDS011;67566;42.022;21.356;2023-08-06T04:58:02;7.45;;;5.47;;
78308;SDS011;67566;42.022;21.356;2023-08-06T05:00:27;6.43;;;5.43;;
78308;SDS011;67566;42.022;21.356;2023-08-06T05:02:53;10.93;;;6.35;;
78308;SDS011;67566;42.022;21.356;2023-08-06T05:05:18;9.40;;;5.90;;
78308;SDS011;67566;42.022;21.356;2023-08-06T05:07:45;6.97;;;4.90;;
78308;SDS011;67566;42.022;21.356;2023-08-06T05:12:41;7.38;;;5.65;;
78308;SDS011;67566;42.022;21.356;2023-08-06T05:15:10;11.68;;;5.32;;
78308;SDS011;67566;42.022;21.356;2023-08-06T05:17:38;7.88;;;6.05;;
78308;SDS011;67566;42.022;21.356;2023-08-06T05:20:04;7.63;;;5.40;;
78308;SDS011;67566;42.022;21.356;2023-08-06T05:22:32;8.02;;;5.75;;
78308;SDS011;67566;42.022;21.356;2023-08-06T05:24:57;9.38;;;5.25;;
78308;SDS011;67566;42.022;21.356;2023-08-06T05:27:23;9.30;;;5.60;;
78308;SDS011;67566;42.022;21.356;2023-08-06T05:29:48;10.77;;;5.32;;
78308;SDS011;67566;42.022;21.356;2023-08-06T05:32:14;8.10;;;5.63;;
78308;SDS011;67566;42.022;21.356;2023-08-06T05:34:39;7.95;;;5.07;;
78308;SDS011;67566;42.022;21.356;2023-08-06T05:37:06;8.55;;;5.63;;
78308;SDS011;67566;42.022;21.356;2023-08-06T05:39:32;7.88;;;5.40;;
78308;SDS011;67566;42.022;21.356;2023-08-06T05:41:57;9.32;;;5.15;;
78308;SDS011;67566;42.022;21.356;2023-08-06T05:44:26;7.40;;;4.85;;
78308;SDS011;67566;42.022;21.356;2023-08-06T05:46:51;10.63;;;6.15;;
78308;SDS011;67566;42.022;21.356;2023-08-06T05:49:18;10.20;;;6.30;;
78308;SDS011;67566;42.022;21.356;2023-08-06T05:51:43;10.80;;;5.60;;
78308;SDS011;67566;42.022;21.356;2023-08-06T05:54:09;7.90;;;5.22;;
78308;SDS011;67566;42.022;21.356;2023-08-06T05:56:34;8.48;;;5.55;;
78308;SDS011;67566;42.022;21.356;2023-08-06T05:59:00;9.88;;;5.28;;
78308;SDS011;67566;42.022;21.356;2023-08-06T06:01:25;8.98;;;5.30;;
78308;SDS011;67566;42.022;21.356;2023-08-06T06:03:51;6.63;;;5.13;;
78308;SDS011;67566;42.022;21.356;2023-08-06T06:06:16;6.55;;;4.60;;
78308;SDS011;67566;42.022;21.356;2023-08-06T06:08:43;6.97;;;4.68;;
78308;SDS011;67566;42.022;21.356;2023-08-06T06:11:09;6.00;;;4.43;;
78308;SDS011;67566;42.022;21.356;2023-08-06T06:13:35;7.53;;;4.63;;
78308;SDS011;67566;42.022;21.356;2023-08-06T06:16:00;5.82;;;4.38;;
78308;SDS011;67566;42.022;21.356;2023-08-06T06:18:26;6.97;;;4.47;;
78308;SDS011;67566;42.022;21.356;2023-08-06T06:20:51;5.78;;;3.85;;
78308;SDS011;67566;42.022;21.356;2023-08-06T06:23:17;8.20;;;4.30;;
78308;SDS011;67566;42.022;21.356;2023-08-06T06:25:43;6.18;;;4.13;;
78308;SDS011;67566;42.022;21.356;2023-08-06T06:28:09;7.18;;;4.18;;
78308;SDS011;67566;42.022;21.356;2023-08-06T06:30:34;8.43;;;4.40;;
78308;SDS011;67566;42.022;21.356;2023-08-06T06:33:00;8.85;;;4.47;;
78308;SDS011;67566;42.022;21.356;2023-08-06T06:35:25;8.13;;;4.43;;
78308;SDS011;67566;42.022;21.356;2023-08-06T06:37:51;7.55;;;4.22;;
78308;SDS011;67566;42.022;21.356;2023-08-06T06:40:16;5.63;;;3.63;;
78308;SDS011;67566;42.022;21.356;2023-08-06T06:42:42;7.63;;;4.13;;
78308;SDS011;67566;42.022;21.356;2023-08-06T06:45:07;6.80;;;3.90;;
78308;SDS011;67566;42.022;21.356;2023-08-06T06:47:34;6.88;;;4.07;;
78308;SDS011;67566;42.022;21.356;2023-08-06T06:49:59;6.65;;;5.07;;
78308;SDS011;67566;42.022;21.356;2023-08-06T06:52:24;9.88;;;4.70;;
78308;SDS011;67566;42.022;21.356;2023-08-06T06:54:50;8.55;;;5.18;;
78308;SDS011;67566;42.022;21.356;2023-08-06T06:57:15;8.73;;;5.43;;
78308;SDS011;67566;42.022;21.356;2023-08-06T06:59:41;6.35;;;4.70;;
78308;SDS011;67566;42.022;21.356;2023-08-06T07:02:06;6.75;;;3.97;;
78308;SDS011;67566;42.022;21.356;2023-08-06T07:04:32;7.82;;;5.28;;
78308;SDS011;67566;42.022;21.356;2023-08-06T07:06:57;10.20;;;5.18;;
78308;SDS011;67566;42.022;21.356;2023-08-06T07:09:23;6.43;;;4.57;;
78308;SDS011;67566;42.022;21.356;2023-08-06T07:11:48;6.80;;;4.90;;
78308;SDS011;67566;42.022;21.356;2023-08-06T07:14:14;6.68;;;5.28;;
78308;SDS011;67566;42.022;21.356;2023-08-06T07:16:39;5.82;;;3.83;;
78308;SDS011;67566;42.022;21.356;2023-08-06T07:19:05;7.22;;;4.70;;
78308;SDS011;67566;42.022;21.356;2023-08-06T07:21:31;6.95;;;3.58;;
78308;SDS011;67566;42.022;21.356;2023-08-06T07:23:57;5.70;;;4.43;;
78308;SDS011;67566;42.022;21.356;2023-08-06T07:26:24;6.05;;;4.47;;
78308;SDS011;67566;42.022;21.356;2023-08-06T07:28:49;5.55;;;4.13;;
78308;SDS011;67566;42.022;21.356;2023-08-06T07:31:15;4.00;;;2.90;;
78308;SDS011;67566;42.022;21.356;2023-08-06T07:33:40;5.13;;;3.05;;
78308;SDS011;67566;42.022;21.356;2023-08-06T07:36:10;4.00;;;2.80;;
78308;SDS011;67566;42.022;21.356;2023-08-06T07:38:37;3.80;;;2.97;;
78308;SDS011;67566;42.022;21.356;2023-08-06T07:41:03;5.43;;;3.03;;
78308;SDS011;67566;42.022;21.356;2023-08-06T07:43:28;4.20;;;2.85;;
78308;SDS011;67566;42.022;21.356;2023-08-06T07:45:54;4.20;;;3.10;;
78308;SDS011;67566;42.022;21.356;2023-08-06T07:48:23;5.38;;;3.00;;
78308;SDS011;67566;42.022;21.356;2023-08-06T07:50:51;3.85;;;2.95;;
78308;SDS011;67566;42.022;21.356;2023-08-06T07:53:23;4.25;;;3.35;;
78308;SDS011;67566;42.022;21.356;2023-08-06T07:55:52;4.57;;;3.20;;
78308;SDS011;67566;42.022;21.356;2023-08-06T07:58:19;4.88;;;3.30;;
78308;SDS011;67566;42.022;21.356;2023-08-06T08:00:45;5.22;;;3.10;;
78308;SDS011;67566;42.022;21.356;2023-08-06T08:03:14;6.63;;;3.03;;
78308;SDS011;67566;42.022;21.356;2023-08-06T08:05:41;5.28;;;3.30;;
78308;SDS011;67566;42.022;21.356;2023-08-06T08:08:07;4.32;;;2.97;;
78308;SDS011;67566;42.022;21.356;2023-08-06T08:10:33;4.43;;;3.10;;
78308;SDS011;67566;42.022;21.356;2023-08-06T08:12:59;4.03;;;2.78;;
78308;SDS011;67566;42.022;21.356;2023-08-06T08:15:28;5.53;;;3.40;;
78308;SDS011;67566;42.022;21.356;2023-08-06T08:17:54;4.80;;;3.10;;
78308;SDS011;67566;42.022;21.356;2023-08-06T08:20:20;5.07;;;2.88;;
78308;SDS011;67566;42.022;21.356;2023-08-06T08:22:46;4.53;;;3.60;;
78308;SDS011;67566;42.022;21.356;2023-08-06T08:25:12;4.07;;;3.08;;
78308;SDS011;67566;42.022;21.356;2023-08-06T08:27:37;4.38;;;3.30;;
78308;SDS011;67566;42.022;21.356;2023-08-06T08:30:03;6.63;;;3.40;;
78308;SDS011;67566;42.022;21.356;2023-08-06T08:32:29;4.93;;;3.50;;
78308;SDS011;67566;42.022;21.356;2023-08-06T08:34:54;5.43;;;2.88;;
78308;SDS011;67566;42.022;21.356;2023-08-06T08:37:20;3.72;;;2.70;;
78308;SDS011;67566;42.022;21.356;2023-08-06T08:39:45;4.07;;;2.42;;
78308;SDS011;67566;42.022;21.356;2023-08-06T08:42:11;4.28;;;2.40;;
78308;SDS011;67566;42.022;21.356;2023-08-06T08:44:37;4.13;;;2.72;;
78308;SDS011;67566;42.022;21.356;2023-08-06T08:47:07;4.95;;;2.47;;
78308;SDS011;67566;42.022;21.356;2023-08-06T08:49:36;4.95;;;2.60;;
78308;SDS011;67566;42.022;21.356;2023-08-06T08:52:03;4.05;;;3.00;;
78308;SDS011;67566;42.022;21.356;2023-08-06T08:54:34;4.57;;;2.80;;
78308;SDS011;67566;42.022;21.356;2023-08-06T08:57:02;4.30;;;2.97;;
78308;SDS011;67566;42.022;21.356;2023-08-06T08:59:28;3.10;;;2.45;;
78308;SDS011;67566;42.022;21.356;2023-08-06T09:01:54;4.05;;;2.90;;
78308;SDS011;67566;42.022;21.356;2023-08-06T09:04:20;5.75;;;2.88;;
78308;SDS011;67566;42.022;21.356;2023-08-06T09:06:47;4.40;;;2.83;;
78308;SDS011;67566;42.022;21.356;2023-08-06T09:09:17;3.90;;;2.70;;
78308;SDS011;67566;42.022;21.356;2023-08-06T09:11:59;3.97;;;2.67;;
78308;SDS011;67566;42.022;21.356;2023-08-06T09:14:27;3.20;;;2.53;;
78308;SDS011;67566;42.022;21.356;2023-08-06T09:16:52;3.25;;;2.50;;
78308;SDS011;67566;42.022;21.356;2023-08-06T09:19:19;5.78;;;3.20;;
78308;SDS011;67566;42.022;21.356;2023-08-06T09:21:45;4.20;;;2.60;;
78308;SDS011;67566;42.022;21.356;2023-08-06T09:24:14;3.42;;;2.72;;
78308;SDS011;67566;42.022;21.356;2023-08-06T09:26:40;4.55;;;2.60;;
78308;SDS011;67566;42.022;21.356;2023-08-06T09:29:07;4.22;;;2.55;;
78308;SDS011;67566;42.022;21.356;2023-08-06T09:31:42;7.00;;;3.00;;
78308;SDS011;67566;42.022;21.356;2023-08-06T09:34:19;4.35;;;2.65;;
78308;SDS011;67566;42.022;21.356;2023-08-06T09:36:47;3.75;;;2.13;;
78308;SDS011;67566;42.022;21.356;2023-08-06T09:39:16;4.85;;;2.72;;
78308;SDS011;67566;42.022;21.356;2023-08-06T09:41:43;4.32;;;2.33;;
78308;SDS011;67566;42.022;21.356;2023-08-06T09:44:18;4.07;;;2.83;;
78308;SDS011;67566;42.022;21.356;2023-08-06T09:46:48;4.15;;;2.70;;
78308;SDS011;67566;42.022;21.356;2023-08-06T09:51:40;4.03;;;2.50;;
78308;SDS011;67566;42.022;21.356;2023-08-06T09:54:06;5.68;;;2.78;;
78308;SDS011;67566;42.022;21.356;2023-08-06T09:56:33;4.78;;;2.70;;
78308;SDS011;67566;42.022;21.356;2023-08-06T10:01:29;3.42;;;2.15;;
78308;SDS011;67566;42.022;21.356;2023-08-06T10:03:56;8.18;;;5.95;;
78308;SDS011;67566;42.022;21.356;2023-08-06T10:06:23;6.60;;;4.18;;
78308;SDS011;67566;42.022;21.356;2023-08-06T10:08:49;5.22;;;3.03;;
78308;SDS011;67566;42.022;21.356;2023-08-06T10:11:15;5.80;;;3.80;;
78308;SDS011;67566;42.022;21.356;2023-08-06T10:13:42;5.43;;;3.80;;
78308;SDS011;67566;42.022;21.356;2023-08-06T10:16:09;4.97;;;3.92;;
78308;SDS011;67566;42.022;21.356;2023-08-06T10:18:35;4.60;;;3.08;;
78308;SDS011;67566;42.022;21.356;2023-08-06T10:21:04;4.90;;;2.75;;
78308;SDS011;67566;42.022;21.356;2023-08-06T10:23:34;4.65;;;3.00;;
78308;SDS011;67566;42.022;21.356;2023-08-06T10:26:03;4.60;;;2.90;;
78308;SDS011;67566;42.022;21.356;2023-08-06T10:28:38;5.07;;;2.75;;
78308;SDS011;67566;42.022;21.356;2023-08-06T10:31:05;4.20;;;3.00;;
78308;SDS011;67566;42.022;21.356;2023-08-06T10:33:44;4.28;;;2.50;;
78308;SDS011;67566;42.022;21.356;2023-08-06T10:36:11;4.88;;;2.83;;
78308;SDS011;67566;42.022;21.356;2023-08-06T10:38:47;4.97;;;3.10;;
78308;SDS011;67566;42.022;21.356;2023-08-06T10:43:49;8.65;;;5.05;;
78308;SDS011;67566;42.022;21.356;2023-08-06T10:46:26;5.10;;;4.03;;
78308;SDS011;67566;42.022;21.356;2023-08-06T10:48:52;6.25;;;3.88;;
78308;SDS011;67566;42.022;21.356;2023-08-06T10:51:18;6.63;;;2.90;;
78308;SDS011;67566;42.022;21.356;2023-08-06T10:53:47;4.05;;;2.45;;
78308;SDS011;67566;42.022;21.356;2023-08-06T10:56:14;4.22;;;2.47;;
78308;SDS011;67566;42.022;21.356;2023-08-06T10:58:41;5.20;;;3.22;;
78308;SDS011;67566;42.022;21.356;2023-08-06T11:01:07;3.50;;;2.95;;
78308;SDS011;67566;42.022;21.356;2023-08-06T11:03:33;3.95;;;2.60;;
78308;SDS011;67566;42.022;21.356;2023-08-06T11:06:01;3.70;;;2.53;;
78308;SDS011;67566;42.022;21.356;2023-08-06T11:08:35;3.80;;;2.47;;
78308;SDS011;67566;42.022;21.356;2023-08-06T11:11:11;3.67;;;2.53;;
78308;SDS011;67566;42.022;21.356;2023-08-06T11:13:43;4.72;;;2.63;;
78308;SDS011;67566;42.022;21.356;2023-08-06T11:16:12;3.95;;;2.42;;
78308;SDS011;67566;42.022;21.356;2023-08-06T11:18:39;5.07;;;2.30;;
78308;SDS011;67566;42.022;21.356;2023-08-06T11:21:06;8.40;;;4.10;;
78308;SDS011;67566;42.022;21.356;2023-08-06T11:23:32;4.03;;;2.10;;
78308;SDS011;67566;42.022;21.356;2023-08-06T11:25:59;6.25;;;3.25;;
78308;SDS011;67566;42.022;21.356;2023-08-06T11:28:24;6.15;;;2.45;;
78308;SDS011;67566;42.022;21.356;2023-08-06T11:30:50;13.90;;;8.30;;
78308;SDS011;67566;42.022;21.356;2023-08-06T11:33:22;11.43;;;8.27;;
78308;SDS011;67566;42.022;21.356;2023-08-06T11:35:50;11.68;;;8.35;;
78308;SDS011;67566;42.022;21.356;2023-08-06T11:38:16;12.15;;;8.90;;
78308;SDS011;67566;42.022;21.356;2023-08-06T11:40:43;8.27;;;5.20;;
78308;SDS011;67566;42.022;21.356;2023-08-06T11:43:15;6.78;;;4.90;;
78308;SDS011;67566;42.022;21.356;2023-08-06T11:45:41;6.13;;;4.80;;
78308;SDS011;67566;42.022;21.356;2023-08-06T11:48:07;8.05;;;4.28;;
78308;SDS011;67566;42.022;21.356;2023-08-06T11:50:38;14.38;;;6.38;;
78308;SDS011;67566;42.022;21.356;2023-08-06T11:53:04;6.15;;;3.40;;
78308;SDS011;67566;42.022;21.356;2023-08-06T11:55:30;4.15;;;2.20;;
78308;SDS011;67566;42.022;21.356;2023-08-06T11:57:55;3.15;;;2.30;;
78308;SDS011;67566;42.022;21.356;2023-08-06T12:00:22;11.80;;;4.95;;
78308;SDS011;67566;42.022;21.356;2023-08-06T12:02:49;7.18;;;3.83;;
78308;SDS011;67566;42.022;21.356;2023-08-06T12:07:47;21.23;;;8.98;;
78308;SDS011;67566;42.022;21.356;2023-08-06T12:10:14;3.00;;;1.95;;
78308;SDS011;67566;42.022;21.356;2023-08-06T12:12:40;5.07;;;2.60;;
78308;SDS011;67566;42.022;21.356;2023-08-06T12:15:07;3.72;;;2.03;;
78308;SDS011;67566;42.022;21.356;2023-08-06T12:17:34;6.63;;;2.53;;
78308;SDS011;67566;42.022;21.356;2023-08-06T12:19:59;4.00;;;2.70;;
78308;SDS011;67566;42.022;21.356;2023-08-06T12:22:25;6.50;;;2.92;;
78308;SDS011;67566;42.022;21.356;2023-08-06T12:24:51;3.72;;;2.10;;
78308;SDS011;67566;42.022;21.356;2023-08-06T12:27:16;7.53;;;4.10;;
78308;SDS011;67566;42.022;21.356;2023-08-06T12:29:47;6.38;;;3.10;;
78308;SDS011;67566;42.022;21.356;2023-08-06T12:32:13;6.00;;;2.50;;
78308;SDS011;67566;42.022;21.356;2023-08-06T12:34:39;7.57;;;3.47;;
78308;SDS011;67566;42.022;21.356;2023-08-06T12:37:07;4.20;;;1.60;;
78308;SDS011;67566;42.022;21.356;2023-08-06T12:39:37;6.68;;;2.90;;
78308;SDS011;67566;42.022;21.356;2023-08-06T12:42:03;7.60;;;2.70;;
78308;SDS011;67566;42.022;21.356;2023-08-06T12:44:30;3.85;;;2.15;;
78308;SDS011;67566;42.022;21.356;2023-08-06T12:46:56;4.22;;;2.20;;
78308;SDS011;67566;42.022;21.356;2023-08-06T12:49:22;7.13;;;2.58;;
78308;SDS011;67566;42.022;21.356;2023-08-06T12:51:48;4.00;;;1.70;;
78308;SDS011;67566;42.022;21.356;2023-08-06T12:54:16;4.88;;;2.00;;
78308;SDS011;67566;42.022;21.356;2023-08-06T12:56:42;2.95;;;1.50;;
78308;SDS011;67566;42.022;21.356;2023-08-06T12:59:09;4.22;;;1.80;;
78308;SDS011;67566;42.022;21.356;2023-08-06T13:01:34;3.65;;;1.45;;
78308;SDS011;67566;42.022;21.356;2023-08-06T13:04:00;3.10;;;1.60;;
78308;SDS011;67566;42.022;21.356;2023-08-06T13:06:26;5.85;;;1.60;;
78308;SDS011;67566;42.022;21.356;2023-08-06T13:08:51;5.07;;;2.22;;
78308;SDS011;67566;42.022;21.356;2023-08-06T13:11:17;4.47;;;1.40;;
78308;SDS011;67566;42.022;21.356;2023-08-06T13:13:44;1.70;;;0.90;;
78308;SDS011;67566;42.022;21.356;2023-08-06T13:16:09;2.78;;;1.55;;
78308;SDS011;67566;42.022;21.356;2023-08-06T13:18:34;2.35;;;1.00;;
78308;SDS011;67566;42.022;21.356;2023-08-06T13:21:00;3.10;;;1.02;;
78308;SDS011;67566;42.022;21.356;2023-08-06T13:23:25;1.95;;;0.88;;
78308;SDS011;67566;42.022;21.356;2023-08-06T13:25:51;1.05;;;0.73;;
78308;SDS011;67566;42.022;21.356;2023-08-06T13:28:16;2.85;;;0.80;;
78308;SDS011;67566;42.022;21.356;2023-08-06T13:30:42;2.17;;;0.93;;
78308;SDS011;67566;42.022;21.356;2023-08-06T13:33:08;2.70;;;1.13;;
78308;SDS011;67566;42.022;21.356;2023-08-06T13:35:34;1.75;;;0.85;;
78308;SDS011;67566;42.022;21.356;2023-08-06T13:38:00;3.70;;;0.90;;
78308;SDS011;67566;42.022;21.356;2023-08-06T13:40:29;2.20;;;1.10;;
78308;SDS011;67566;42.022;21.356;2023-08-06T13:42:55;1.58;;;0.70;;
78308;SDS011;67566;42.022;21.356;2023-08-06T13:45:21;1.45;;;0.80;;
78308;SDS011;67566;42.022;21.356;2023-08-06T13:47:46;2.45;;;0.93;;
78308;SDS011;67566;42.022;21.356;2023-08-06T13:50:12;1.65;;;0.65;;
78308;SDS011;67566;42.022;21.356;2023-08-06T13:52:38;1.50;;;0.80;;
78308;SDS011;67566;42.022;21.356;2023-08-06T13:55:04;2.25;;;0.98;;
78308;SDS011;67566;42.022;21.356;2023-08-06T13:57:30;1.23;;;0.57;;
78308;SDS011;67566;42.022;21.356;2023-08-06T13:59:55;2.25;;;0.85;;
78308;SDS011;67566;42.022;21.356;2023-08-06T14:02:21;1.90;;;1.05;;
78308;SDS011;67566;42.022;21.356;2023-08-06T14:04:48;2.08;;;1.00;;
78308;SDS011;67566;42.022;21.356;2023-08-06T14:07:13;1.75;;;0.85;;
78308;SDS011;67566;42.022;21.356;2023-08-06T14:09:39;1.38;;;0.70;;
78308;SDS011;67566;42.022;21.356;2023-08-06T14:12:07;1.30;;;0.60;;
78308;SDS011;67566;42.022;21.356;2023-08-06T14:14:33;2.03;;;0.90;;
78308;SDS011;67566;42.022;21.356;2023-08-06T14:16:59;1.77;;;0.95;;
78308;SDS011;67566;42.022;21.356;2023-08-06T14:19:24;2.40;;;0.98;;
78308;SDS011;67566;42.022;21.356;2023-08-06T14:21:50;1.95;;;1.00;;
78308;SDS011;67566;42.022;21.356;2023-08-06T14:24:15;2.25;;;0.90;;
78308;SDS011;67566;42.022;21.356;2023-08-06T14:26:41;2.35;;;1.20;;
78308;SDS011;67566;42.022;21.356;2023-08-06T14:29:06;3.30;;;1.27;;
78308;SDS011;67566;42.022;21.356;2023-08-06T14:31:32;2.92;;;1.48;;
78308;SDS011;67566;42.022;21.356;2023-08-06T14:33:58;8.13;;;1.95;;
78308;SDS011;67566;42.022;21.356;2023-08-06T14:36:23;3.05;;;1.45;;
78308;SDS011;67566;42.022;21.356;2023-08-06T14:38:49;2.72;;;1.50;;
78308;SDS011;67566;42.022;21.356;2023-08-06T14:41:17;2.65;;;1.50;;
78308;SDS011;67566;42.022;21.356;2023-08-06T14:43:42;1.85;;;1.00;;
78308;SDS011;67566;42.022;21.356;2023-08-06T14:46:08;2.97;;;1.42;;
78308;SDS011;67566;42.022;21.356;2023-08-06T14:48:33;1.95;;;0.95;;